createdAt,value
2023-05-16T00:01:30.620Z,24.27
2023-05-16T00:03:59.924Z,23.73
2023-05-16T00:06:28.012Z,21.47
2023-05-16T00:08:55.744Z,24.60
2023-05-16T00:11:23.465Z,25.93
2023-05-16T00:13:51.609Z,25.70
2023-05-16T00:16:21.686Z,22.30
2023-05-16T00:18:49.766Z,22.83
2023-05-16T00:21:19.739Z,22.97
2023-05-16T00:23:48.754Z,22.33
2023-05-16T00:26:16.499Z,26.23
2023-05-16T00:28:44.185Z,23.03
2023-05-16T00:31:11.941Z,20.57
2023-05-16T00:33:39.645Z,22.63
2023-05-16T00:36:07.894Z,23.00
2023-05-16T00:38:37.481Z,19.67
2023-05-16T00:41:05.311Z,18.87
2023-05-16T00:43:33.064Z,21.73
2023-05-16T00:46:01.153Z,19.23
2023-05-16T00:48:29.084Z,19.07
2023-05-16T00:50:56.993Z,16.47
2023-05-16T00:53:25.211Z,16.33
2023-05-16T00:55:54.713Z,17.70
2023-05-16T00:58:23.705Z,16.57
2023-05-16T01:00:51.656Z,17.40
2023-05-16T01:03:19.930Z,18.70
2023-05-16T01:05:48.151Z,18.40
2023-05-16T01:08:15.870Z,15.33
2023-05-16T01:10:54.430Z,17.60
2023-05-16T01:13:32.206Z,16.10
2023-05-16T01:16:05.838Z,20.13
2023-05-16T01:18:42.329Z,18.43
2023-05-16T01:21:17.363Z,17.17
2023-05-16T01:23:53.477Z,15.83
2023-05-16T01:26:23.985Z,16.33
2023-05-16T01:28:52.924Z,19.10
2023-05-16T01:31:21.086Z,18.30
2023-05-16T01:33:49.274Z,21.50
2023-05-16T01:36:25.336Z,17.70
2023-05-16T01:39:02.267Z,22.60
2023-05-16T01:41:42.265Z,17.73
2023-05-16T01:44:19.376Z,17.40
2023-05-16T01:46:49.310Z,17.17
2023-05-16T01:49:21.329Z,20.90
2023-05-16T01:51:52.946Z,17.63
2023-05-16T01:54:22.677Z,19.93
2023-05-16T01:56:54.445Z,21.73
2023-05-16T01:59:22.960Z,19.37
2023-05-16T02:01:50.769Z,19.03
2023-05-16T02:04:18.831Z,19.63
2023-05-16T02:06:47.006Z,20.00
2023-05-16T02:09:14.695Z,18.40
2023-05-16T02:11:42.410Z,20.80
2023-05-16T02:14:11.492Z,20.13
2023-05-16T02:16:39.403Z,19.50
2023-05-16T02:19:07.190Z,17.70
2023-05-16T02:21:34.938Z,22.33
2023-05-16T02:24:02.699Z,21.43
2023-05-16T02:26:30.489Z,18.10
2023-05-16T02:28:58.232Z,18.90
2023-05-16T02:31:31.423Z,15.90
2023-05-16T02:33:59.408Z,19.83
2023-05-16T02:36:27.380Z,19.07
2023-05-16T02:38:55.658Z,21.40
2023-05-16T02:41:24.018Z,17.67
2023-05-16T02:43:51.728Z,17.00
2023-05-16T02:46:24.121Z,17.13
2023-05-16T02:48:53.276Z,18.50
2023-05-16T02:51:22.702Z,17.17
2023-05-16T02:53:50.792Z,17.07
2023-05-16T02:56:18.993Z,19.33
2023-05-16T02:58:48.363Z,17.17
2023-05-16T03:01:16.331Z,17.30
2023-05-16T03:03:44.164Z,18.40
2023-05-16T03:06:13.656Z,18.30
2023-05-16T03:08:41.523Z,16.33
2023-05-16T03:11:09.275Z,16.67
2023-05-16T03:13:36.974Z,15.10
2023-05-16T03:16:05.206Z,17.47
2023-05-16T03:18:33.234Z,19.30
2023-05-16T03:21:01.930Z,15.03
2023-05-16T03:23:31.096Z,13.70
2023-05-16T03:25:58.842Z,14.93
2023-05-16T03:28:27.836Z,15.00
2023-05-16T03:30:55.737Z,16.30
2023-05-16T03:33:23.682Z,13.60
2023-05-16T03:35:52.135Z,14.10
2023-05-16T03:38:19.927Z,13.53
2023-05-16T03:40:49.094Z,14.63
2023-05-16T03:43:16.962Z,13.57
2023-05-16T03:45:44.723Z,15.00
2023-05-16T03:48:12.623Z,13.90
2023-05-16T03:50:41.146Z,13.60
2023-05-16T03:53:09.870Z,17.40
2023-05-16T03:55:37.646Z,14.87
2023-05-16T03:58:07.698Z,15.80
2023-05-16T04:00:36.702Z,16.10
2023-05-16T04:03:04.964Z,18.03
2023-05-16T04:05:32.859Z,15.27
2023-05-16T04:08:00.655Z,18.10
2023-05-16T04:10:28.394Z,16.13
2023-05-16T04:12:56.131Z,16.50
2023-05-16T04:15:25.494Z,14.30
2023-05-16T04:17:53.439Z,14.40
2023-05-16T04:20:21.277Z,14.83
2023-05-16T04:22:49.334Z,17.97
2023-05-16T04:25:17.234Z,13.20
2023-05-16T04:27:44.961Z,18.70
2023-05-16T04:30:14.585Z,14.60
2023-05-16T04:32:44.060Z,13.73
2023-05-16T04:35:12.131Z,12.30
2023-05-16T04:37:39.854Z,13.53
2023-05-16T04:40:09.823Z,13.37
2023-05-16T04:42:37.566Z,15.20
2023-05-16T04:45:06.694Z,15.07
2023-05-16T04:47:34.561Z,13.20
2023-05-16T04:50:03.803Z,10.40
2023-05-16T04:52:31.519Z,11.00
2023-05-16T04:55:00.452Z,12.70
2023-05-16T04:57:28.733Z,11.60
2023-05-16T04:59:56.511Z,11.40
2023-05-16T05:02:24.341Z,9.93
2023-05-16T05:04:52.517Z,12.90
2023-05-16T05:07:21.648Z,11.90
2023-05-16T05:09:49.354Z,10.30
2023-05-16T05:12:17.106Z,11.73
2023-05-16T05:14:44.826Z,10.40
2023-05-16T05:17:12.605Z,9.83
2023-05-16T05:19:40.588Z,10.50
2023-05-16T05:22:08.604Z,8.73
2023-05-16T05:24:37.736Z,8.20
2023-05-16T05:27:05.787Z,9.20
2023-05-16T05:29:33.869Z,11.57
2023-05-16T05:32:01.781Z,8.30
2023-05-16T05:34:29.566Z,8.23
2023-05-16T05:36:57.520Z,12.10
2023-05-16T05:39:26.267Z,9.43
2023-05-16T05:41:55.326Z,10.73
2023-05-16T05:44:23.040Z,9.30
2023-05-16T05:46:51.267Z,9.90
2023-05-16T05:49:19.074Z,8.00
2023-05-16T05:51:46.878Z,9.13
2023-05-16T05:54:14.906Z,12.90
2023-05-16T05:56:42.636Z,13.27
2023-05-16T05:59:12.030Z,11.70
2023-05-16T06:01:40.214Z,11.63
2023-05-16T06:04:08.118Z,10.10
2023-05-16T06:06:35.998Z,16.10
2023-05-16T06:09:03.738Z,14.60
2023-05-16T06:11:31.887Z,12.97
2023-05-16T06:13:59.615Z,12.52
2023-05-16T06:16:28.887Z,9.23
2023-05-16T06:18:56.662Z,15.53
2023-05-16T06:21:24.486Z,16.10
2023-05-16T06:23:52.265Z,12.20
2023-05-16T06:26:20.391Z,13.00
2023-05-16T06:28:48.155Z,12.57
2023-05-16T06:31:16.021Z,10.43
2023-05-16T06:33:45.839Z,16.13
2023-05-16T06:36:13.844Z,15.10
2023-05-16T06:38:41.571Z,17.83
2023-05-16T06:41:09.274Z,11.97
2023-05-16T06:43:37.040Z,11.13
2023-05-16T06:46:04.969Z,14.97
2023-05-16T06:48:32.857Z,10.60
2023-05-16T06:51:01.980Z,13.73
2023-05-16T06:53:29.863Z,18.13
2023-05-16T06:55:57.615Z,20.20
2023-05-16T06:58:25.422Z,15.40
2023-05-16T07:00:53.269Z,12.90
2023-05-16T07:03:21.499Z,16.85
2023-05-16T07:05:51.594Z,14.70
2023-05-16T07:08:20.776Z,11.70
2023-05-16T07:10:48.554Z,16.47
2023-05-16T07:13:16.323Z,16.27
2023-05-16T07:15:44.112Z,13.63
2023-05-16T07:18:12.080Z,18.77
2023-05-16T07:20:39.969Z,26.97
2023-05-16T07:23:07.769Z,17.60
2023-05-16T07:25:37.298Z,15.40
2023-05-16T07:28:05.250Z,15.03
2023-05-16T07:30:33.107Z,13.73
2023-05-16T07:33:00.908Z,20.63
2023-05-16T07:35:29.033Z,18.80
2023-05-16T07:37:57.031Z,16.53
2023-05-16T07:40:28.182Z,20.50
2023-05-16T07:42:57.415Z,17.17
2023-05-16T07:45:25.450Z,12.97
2023-05-16T07:47:53.323Z,15.53
2023-05-16T07:50:21.226Z,12.40
2023-05-16T07:52:49.030Z,22.30
2023-05-16T07:55:16.936Z,11.70
2023-05-16T07:57:44.886Z,14.90
2023-05-16T08:00:15.296Z,12.30
2023-05-16T08:02:43.330Z,12.80
2023-05-16T08:05:11.391Z,15.13
2023-05-16T08:07:39.210Z,11.70
2023-05-16T08:10:07.997Z,13.63
2023-05-16T08:12:36.052Z,13.20
2023-05-16T08:15:04.422Z,11.83
2023-05-16T08:17:33.577Z,12.17
2023-05-16T08:20:01.969Z,15.55
2023-05-16T08:22:29.829Z,16.13
2023-05-16T08:24:58.320Z,14.63
2023-05-16T08:27:26.232Z,13.00
2023-05-16T08:29:54.225Z,14.90
2023-05-16T08:32:23.160Z,10.70
2023-05-16T08:34:52.358Z,8.63
2023-05-16T08:37:20.134Z,12.75
2023-05-16T08:39:47.906Z,11.80
2023-05-16T08:42:15.943Z,12.77
2023-05-16T08:44:43.794Z,10.37
2023-05-16T08:47:18.934Z,8.30
2023-05-16T08:49:49.073Z,14.87
2023-05-16T08:52:20.767Z,14.70
2023-05-16T08:55:01.921Z,11.47
2023-05-16T08:57:38.316Z,11.97
2023-05-16T09:00:14.697Z,12.23
2023-05-16T09:02:44.258Z,7.33
2023-05-16T09:05:13.879Z,16.30
2023-05-16T09:07:43.835Z,10.10
2023-05-16T09:10:12.800Z,15.20
2023-05-16T09:12:41.966Z,16.30
2023-05-16T09:15:12.299Z,9.40
2023-05-16T09:17:44.882Z,12.67
2023-05-16T09:20:14.746Z,15.07
2023-05-16T09:22:53.049Z,14.10
2023-05-16T09:25:30.167Z,11.83
2023-05-16T09:28:01.427Z,8.00
2023-05-16T09:30:32.116Z,8.80
2023-05-16T09:33:00.415Z,11.47
2023-05-16T09:35:43.238Z,15.30
2023-05-16T09:38:17.278Z,9.67
2023-05-16T09:40:46.473Z,13.53
2023-05-16T09:43:18.172Z,14.43
2023-05-16T09:45:50.814Z,11.23
2023-05-16T09:48:19.478Z,9.53
2023-05-16T09:50:52.850Z,9.43
2023-05-16T09:53:28.434Z,15.33
2023-05-16T09:56:03.844Z,9.23
2023-05-16T09:58:32.741Z,13.85
2023-05-16T10:01:01.356Z,12.53
2023-05-16T10:03:30.209Z,13.93
2023-05-16T10:05:58.545Z,6.00
2023-05-16T10:08:27.948Z,7.83
2023-05-16T10:10:57.228Z,10.80
2023-05-16T10:13:29.277Z,7.50
2023-05-16T10:15:58.052Z,7.13
2023-05-16T10:18:30.668Z,8.87
2023-05-16T10:20:59.419Z,9.93
2023-05-16T10:23:29.573Z,7.50
2023-05-16T10:25:59.980Z,10.93
2023-05-16T10:28:29.554Z,8.37
2023-05-16T10:30:57.657Z,8.30
2023-05-16T10:33:26.040Z,9.40
2023-05-16T10:35:54.579Z,7.97
2023-05-16T10:38:24.462Z,6.80
2023-05-16T10:40:53.918Z,10.40
2023-05-16T10:43:26.642Z,10.07
2023-05-16T10:45:58.757Z,7.03
2023-05-16T10:48:33.920Z,7.37
2023-05-16T10:51:03.900Z,11.37
2023-05-16T10:53:33.539Z,8.77
2023-05-16T10:56:12.870Z,8.80
2023-05-16T10:58:45.480Z,9.97
2023-05-16T11:01:18.066Z,5.63
2023-05-16T11:04:06.243Z,8.90
2023-05-16T11:06:36.189Z,8.27
2023-05-16T11:09:09.990Z,9.97
2023-05-16T11:11:46.519Z,9.10
2023-05-16T11:14:22.166Z,6.87
2023-05-16T11:16:51.726Z,11.07
2023-05-16T11:19:35.314Z,8.50
2023-05-16T11:22:07.430Z,6.30
2023-05-16T11:24:36.724Z,6.67
2023-05-16T11:27:06.957Z,9.32
2023-05-16T11:29:36.280Z,7.87
2023-05-16T11:32:06.374Z,8.13
2023-05-16T11:34:39.536Z,9.30
2023-05-16T11:37:07.537Z,7.17
2023-05-16T11:39:35.667Z,6.73
2023-05-16T11:42:04.880Z,10.03
2023-05-16T11:44:33.673Z,5.83
2023-05-16T11:47:02.418Z,6.20
2023-05-16T11:49:30.670Z,8.10
2023-05-16T11:51:58.647Z,9.90
2023-05-16T11:54:26.837Z,6.40
2023-05-16T11:56:55.443Z,6.50
2023-05-16T11:59:24.661Z,6.20
2023-05-16T12:01:53.035Z,9.57
2023-05-16T12:04:22.293Z,9.80
2023-05-16T12:07:01.459Z,9.37
2023-05-16T12:09:29.465Z,5.70
2023-05-16T12:11:57.691Z,6.50
2023-05-16T12:14:27.506Z,6.37
2023-05-16T12:16:55.899Z,8.00
2023-05-16T12:19:24.050Z,6.10
2023-05-16T12:21:54.978Z,9.00
2023-05-16T12:24:22.889Z,8.83
2023-05-16T12:26:54.329Z,7.33
2023-05-16T12:29:25.277Z,11.13
2023-05-16T12:31:55.342Z,7.23
2023-05-16T12:34:23.387Z,7.20
2023-05-16T12:36:54.812Z,7.37
2023-05-16T12:39:23.880Z,8.20
2023-05-16T12:41:51.704Z,7.63
2023-05-16T12:44:20.400Z,6.30
2023-05-16T12:46:51.484Z,6.23
2023-05-16T12:49:23.101Z,5.60
2023-05-16T12:51:52.348Z,7.23
2023-05-16T12:54:20.530Z,8.02
2023-05-16T12:56:48.458Z,7.13
2023-05-16T12:59:16.672Z,5.43
2023-05-16T13:01:46.336Z,6.00
2023-05-16T13:04:19.054Z,5.13
2023-05-16T13:06:58.750Z,5.40
2023-05-16T13:09:32.164Z,6.80
2023-05-16T13:12:00.660Z,7.97
2023-05-16T13:14:28.532Z,6.83
2023-05-16T13:16:56.553Z,7.10
2023-05-16T13:19:24.609Z,7.27
2023-05-16T13:21:53.794Z,7.47
2023-05-16T13:24:21.590Z,10.80
2023-05-16T13:26:49.435Z,8.07
2023-05-16T13:29:17.198Z,9.90
2023-05-16T13:31:45.181Z,8.60
2023-05-16T13:34:13.040Z,13.70
2023-05-16T13:36:52.925Z,10.93
2023-05-16T13:39:23.535Z,8.33
2023-05-16T13:41:51.653Z,6.50
2023-05-16T13:44:19.629Z,6.47
2023-05-16T13:46:47.570Z,4.57
2023-05-16T13:49:15.442Z,7.53
2023-05-16T13:51:43.226Z,6.43
2023-05-16T13:54:11.017Z,7.00
2023-05-16T13:56:40.376Z,9.50
2023-05-16T13:59:09.683Z,5.17
2023-05-16T14:01:38.776Z,6.00
2023-05-16T14:04:06.840Z,5.43
2023-05-16T14:06:35.725Z,7.00
2023-05-16T14:09:04.387Z,6.63
2023-05-16T14:11:32.242Z,8.90
2023-05-16T14:14:01.423Z,7.30
2023-05-16T14:16:31.187Z,10.97
2023-05-16T14:18:59.067Z,7.07
2023-05-16T14:21:27.641Z,7.07
2023-05-16T14:23:55.504Z,7.00
2023-05-16T14:26:25.307Z,7.20
2023-05-16T14:28:53.129Z,5.43
2023-05-16T14:31:22.305Z,5.50
2023-05-16T14:33:50.377Z,7.63
2023-05-16T14:36:18.155Z,6.50
2023-05-16T14:38:45.938Z,7.00
2023-05-16T14:41:14.488Z,10.20
2023-05-16T14:43:42.279Z,8.60
2023-05-16T14:46:10.167Z,7.20
2023-05-16T14:48:39.614Z,8.80
2023-05-16T14:51:08.135Z,7.20
2023-05-16T14:53:35.946Z,8.30
2023-05-16T14:56:04.401Z,7.33
2023-05-16T14:58:32.275Z,9.10
2023-05-16T15:01:00.257Z,11.17
2023-05-16T15:03:28.326Z,9.33
2023-05-16T15:05:57.859Z,8.53
2023-05-16T15:08:25.892Z,7.77
2023-05-16T15:10:55.843Z,8.00
2023-05-16T15:13:23.667Z,8.57
2023-05-16T15:15:51.867Z,17.50
2023-05-16T15:18:19.698Z,7.60
2023-05-16T15:20:47.485Z,7.60
2023-05-16T15:23:16.669Z,7.80
2023-05-16T15:25:44.688Z,6.77
2023-05-16T15:28:12.470Z,9.13
2023-05-16T15:30:40.401Z,7.53
2023-05-16T15:33:08.217Z,9.40
2023-05-16T15:35:36.012Z,7.90
2023-05-16T15:38:03.864Z,7.97
2023-05-16T15:40:33.061Z,6.27
2023-05-16T15:43:00.828Z,9.43
2023-05-16T15:45:29.294Z,7.80
2023-05-16T15:47:57.550Z,8.67
2023-05-16T15:50:25.512Z,6.77
2023-05-16T15:52:53.617Z,7.40
2023-05-16T15:55:22.020Z,7.15
2023-05-16T15:57:51.147Z,10.13
2023-05-16T16:00:19.306Z,7.20
2023-05-16T16:02:48.223Z,6.30
2023-05-16T16:05:16.317Z,7.57
2023-05-16T16:07:44.137Z,6.00
2023-05-16T16:10:12.820Z,7.47
2023-05-16T16:12:40.822Z,6.03
2023-05-16T16:15:11.804Z,7.07
2023-05-16T16:17:39.648Z,6.77
2023-05-16T16:20:08.400Z,7.83
2023-05-16T16:22:36.325Z,6.30
2023-05-16T16:25:04.212Z,9.80
2023-05-16T16:27:31.986Z,6.00
2023-05-16T16:29:59.854Z,7.37
2023-05-16T16:32:29.112Z,11.57
2023-05-16T16:34:57.041Z,8.67
2023-05-16T16:37:24.808Z,7.77
2023-05-16T16:39:52.759Z,6.70
2023-05-16T16:42:20.735Z,9.43
2023-05-16T16:44:49.063Z,7.03
2023-05-16T16:47:16.868Z,8.03
2023-05-16T16:49:46.289Z,7.07
2023-05-16T16:52:14.032Z,8.80
2023-05-16T16:54:42.007Z,7.03
2023-05-16T16:57:09.831Z,9.23
2023-05-16T16:59:37.618Z,7.07
2023-05-16T17:02:05.768Z,7.40
2023-05-16T17:04:34.936Z,6.40
2023-05-16T17:07:04.072Z,9.37
2023-05-16T17:09:31.951Z,7.37
2023-05-16T17:12:04.488Z,6.17
2023-05-16T17:14:32.241Z,6.73
2023-05-16T17:17:00.137Z,7.00
2023-05-16T17:19:28.080Z,6.90
2023-05-16T17:21:56.450Z,8.37
2023-05-16T17:24:25.591Z,6.70
2023-05-16T17:26:53.713Z,7.13
2023-05-16T17:29:21.565Z,6.60
2023-05-16T17:31:51.765Z,5.63
2023-05-16T17:34:19.905Z,5.67
2023-05-16T17:36:47.875Z,7.03
2023-05-16T17:39:16.846Z,5.93
2023-05-16T17:41:46.114Z,6.90
2023-05-16T17:44:14.138Z,6.67
2023-05-16T17:46:42.547Z,6.57
2023-05-16T17:49:10.616Z,8.00
2023-05-16T17:51:52.485Z,5.97
2023-05-16T17:54:22.006Z,7.60
2023-05-16T17:56:53.481Z,7.90
2023-05-16T17:59:21.376Z,9.87
2023-05-16T18:01:49.255Z,8.17
2023-05-16T18:04:18.130Z,8.53
2023-05-16T18:06:46.166Z,10.40
2023-05-16T18:09:14.996Z,8.10
2023-05-16T18:11:43.013Z,6.07
2023-05-16T18:14:12.853Z,7.47
2023-05-16T18:16:41.034Z,9.13
2023-05-16T18:19:09.019Z,7.20
2023-05-16T18:21:38.166Z,7.70
2023-05-16T18:24:08.245Z,8.43
2023-05-16T18:26:36.708Z,10.60
2023-05-16T18:29:04.725Z,11.40
2023-05-16T18:31:34.066Z,8.93
2023-05-16T18:34:02.864Z,5.63
2023-05-16T18:36:30.669Z,8.53
2023-05-16T18:38:58.414Z,11.80
2023-05-16T18:41:26.938Z,7.40
2023-05-16T18:43:56.408Z,7.00
2023-05-16T18:46:24.236Z,8.37
2023-05-16T18:48:57.508Z,7.97
2023-05-16T18:51:25.455Z,9.33
2023-05-16T18:53:53.690Z,7.63
2023-05-16T18:56:22.469Z,6.20
2023-05-16T18:58:50.750Z,9.70
2023-05-16T19:01:22.137Z,7.90
2023-05-16T19:03:50.332Z,7.83
2023-05-16T19:06:19.583Z,7.20
2023-05-16T19:08:48.494Z,9.47
2023-05-16T19:11:17.295Z,6.40
2023-05-16T19:13:45.486Z,8.60
2023-05-16T19:16:13.369Z,7.30
2023-05-16T19:18:41.499Z,10.20
2023-05-16T19:21:10.928Z,7.90
2023-05-16T19:23:40.037Z,7.63
2023-05-16T19:26:07.851Z,6.87
2023-05-16T19:28:36.051Z,5.77
2023-05-16T19:31:03.945Z,7.93
2023-05-16T19:33:32.733Z,5.97
2023-05-16T19:36:00.789Z,10.60
2023-05-16T19:38:28.598Z,8.27
2023-05-16T19:40:57.761Z,8.00
2023-05-16T19:43:25.583Z,8.23
2023-05-16T19:45:53.623Z,7.80
2023-05-16T19:48:21.617Z,8.47
2023-05-16T19:50:49.564Z,8.37
2023-05-16T19:53:17.386Z,5.30
2023-05-16T19:55:46.695Z,6.90
2023-05-16T19:58:15.780Z,10.30
2023-05-16T20:00:43.587Z,9.37
2023-05-16T20:03:11.562Z,9.13
2023-05-16T20:05:39.529Z,8.83
2023-05-16T20:08:07.311Z,9.27
2023-05-16T20:10:35.539Z,9.73
2023-05-16T20:13:03.364Z,10.40
2023-05-16T20:15:32.503Z,5.60
2023-05-16T20:18:00.342Z,8.77
2023-05-16T20:20:29.815Z,9.17
2023-05-16T20:22:57.597Z,10.97
2023-05-16T20:25:25.716Z,12.83
2023-05-16T20:27:53.539Z,8.93
2023-05-16T20:30:21.323Z,8.60
2023-05-16T20:32:50.524Z,9.40
2023-05-16T20:35:18.352Z,7.47
2023-05-16T20:37:46.232Z,8.70
2023-05-16T20:40:14.097Z,6.73
2023-05-16T20:42:42.118Z,6.80
2023-05-16T20:45:10.889Z,8.43
2023-05-16T20:47:38.684Z,9.43
2023-05-16T20:50:09.092Z,9.57
2023-05-16T20:52:36.960Z,9.53
2023-05-16T20:55:05.033Z,9.87
2023-05-16T20:57:32.800Z,6.77
2023-05-16T21:00:00.587Z,9.90
2023-05-16T21:02:28.452Z,9.03
2023-05-16T21:04:59.236Z,11.80
2023-05-16T21:07:28.693Z,9.73
2023-05-16T21:09:56.504Z,10.03
2023-05-16T21:12:24.387Z,9.63
2023-05-16T21:14:52.257Z,10.83
2023-05-16T21:17:20.109Z,9.93
2023-05-16T21:19:47.934Z,9.10
2023-05-16T21:22:15.753Z,10.90
2023-05-16T21:24:44.838Z,8.30
2023-05-16T21:27:12.595Z,9.43
2023-05-16T21:29:40.370Z,9.70
2023-05-16T21:32:09.321Z,7.83
2023-05-16T21:34:38.268Z,7.70
2023-05-16T21:37:07.217Z,9.23
2023-05-16T21:39:35.324Z,7.70
2023-05-16T21:42:04.676Z,10.30
2023-05-16T21:44:32.501Z,9.20
2023-05-16T21:47:00.254Z,10.90
2023-05-16T21:49:28.015Z,12.27
2023-05-16T21:51:56.024Z,9.40
2023-05-16T21:54:23.777Z,8.07
2023-05-16T21:56:53.089Z,10.10
2023-05-16T21:59:22.223Z,10.25
2023-05-16T22:01:50.330Z,8.53
2023-05-16T22:04:18.248Z,12.17
2023-05-16T22:06:46.097Z,10.80
2023-05-16T22:09:13.836Z,10.00
2023-05-16T22:11:41.618Z,12.47
2023-05-16T22:14:09.401Z,8.30
2023-05-16T22:16:38.710Z,10.17
2023-05-16T22:19:06.690Z,11.60
2023-05-16T22:21:34.563Z,8.50
2023-05-16T22:24:02.295Z,10.40
2023-05-16T22:26:30.102Z,10.20
2023-05-16T22:28:57.841Z,11.43
2023-05-16T22:31:25.585Z,12.00
2023-05-16T22:33:54.900Z,8.47
2023-05-16T22:36:22.692Z,14.43
2023-05-16T22:38:50.451Z,13.67
2023-05-16T22:41:18.187Z,8.27
2023-05-16T22:43:45.936Z,7.83
2023-05-16T22:46:15.200Z,9.90
2023-05-16T22:48:43.053Z,15.83
2023-05-16T22:51:12.331Z,8.00
2023-05-16T22:53:40.508Z,12.03
2023-05-16T22:56:08.743Z,8.60
2023-05-16T22:58:36.923Z,9.93
2023-05-16T23:01:05.767Z,9.17
2023-05-16T23:03:34.181Z,10.47
2023-05-16T23:06:02.076Z,10.87
2023-05-16T23:08:31.152Z,11.93
2023-05-16T23:10:58.912Z,10.93
2023-05-16T23:13:26.700Z,9.13
2023-05-16T23:15:54.475Z,13.50
2023-05-16T23:18:22.270Z,11.00
2023-05-16T23:20:50.173Z,11.80
2023-05-16T23:23:17.902Z,10.47
2023-05-16T23:25:48.606Z,9.90
2023-05-16T23:28:16.409Z,10.37
2023-05-16T23:30:44.168Z,9.80
2023-05-16T23:33:12.811Z,13.53
2023-05-16T23:35:40.767Z,17.57
2023-05-16T23:38:08.508Z,10.00
2023-05-16T23:40:36.575Z,13.50
2023-05-16T23:43:05.699Z,10.93
2023-05-16T23:45:33.510Z,9.13
2023-05-16T23:48:01.390Z,9.77
2023-05-16T23:50:29.243Z,12.10
2023-05-16T23:52:56.998Z,11.23
2023-05-16T23:55:24.870Z,10.40
2023-05-16T23:57:52.722Z,13.37
